createdAt,value
2022-12-18T00:01:20.105Z,17.33
2022-12-18T00:03:47.519Z,17.85
2022-12-18T00:06:15.607Z,18.38
2022-12-18T00:08:43.363Z,19.13
2022-12-18T00:11:14.058Z,20.35
2022-12-18T00:13:41.352Z,18.85
2022-12-18T00:16:11.924Z,18.98
2022-12-18T00:18:39.073Z,18.80
2022-12-18T00:21:08.629Z,20.67
2022-12-18T00:23:37.400Z,18.83
2022-12-18T00:26:11.893Z,19.03
2022-12-18T00:28:38.653Z,19.95
2022-12-18T00:31:08.035Z,19.02
2022-12-18T00:33:35.732Z,18.33
2022-12-18T00:36:27.096Z,16.80
2022-12-18T00:38:58.076Z,19.50
2022-12-18T00:41:44.565Z,19.95
2022-12-18T00:44:14.056Z,20.80
2022-12-18T00:46:41.395Z,17.08
2022-12-18T00:49:08.436Z,20.73
2022-12-18T00:51:35.833Z,19.57
2022-12-18T00:54:02.559Z,20.25
2022-12-18T00:56:29.292Z,19.75
2022-12-18T00:58:55.980Z,20.43
2022-12-18T01:01:22.894Z,19.95
2022-12-18T01:03:49.901Z,19.48
2022-12-18T01:06:17.506Z,20.25
2022-12-18T01:08:44.546Z,19.27
2022-12-18T01:11:19.503Z,19.70
2022-12-18T01:13:47.029Z,17.55
2022-12-18T01:16:15.351Z,18.53
2022-12-18T01:18:42.362Z,17.65
2022-12-18T01:21:11.501Z,18.73
2022-12-18T01:23:39.067Z,21.10
2022-12-18T01:26:11.484Z,18.35
2022-12-18T01:28:39.184Z,17.73
2022-12-18T01:31:20.622Z,19.85
2022-12-18T01:33:47.790Z,18.75
2022-12-18T01:36:20.105Z,19.48
2022-12-18T01:38:48.126Z,20.70
2022-12-18T01:41:17.283Z,18.73
2022-12-18T01:43:58.617Z,19.83
2022-12-18T01:46:26.455Z,19.27
2022-12-18T01:49:02.197Z,19.83
2022-12-18T01:51:31.644Z,13.38
2022-12-18T01:54:00.193Z,19.45
2022-12-18T01:56:27.272Z,19.08
2022-12-18T01:59:00.980Z,19.90
2022-12-18T02:01:28.178Z,19.80
2022-12-18T02:03:55.122Z,19.70
2022-12-18T02:06:29.592Z,19.53
2022-12-18T02:09:03.983Z,18.73
2022-12-18T02:11:47.201Z,16.75
2022-12-18T02:14:38.357Z,19.23
2022-12-18T02:17:08.965Z,18.50
2022-12-18T02:20:04.816Z,19.58
2022-12-18T02:22:47.198Z,18.83
2022-12-18T02:25:31.778Z,18.48
2022-12-18T02:28:01.413Z,18.77
2022-12-18T02:30:33.975Z,18.20
2022-12-18T02:33:04.902Z,19.10
2022-12-18T02:35:34.077Z,18.25
2022-12-18T02:38:04.141Z,18.05
2022-12-18T02:40:34.759Z,18.63
2022-12-18T02:43:14.259Z,18.50
2022-12-18T02:45:56.866Z,18.60
2022-12-18T02:48:29.039Z,18.75
2022-12-18T02:51:24.732Z,18.23
2022-12-18T02:54:10.039Z,17.80
2022-12-18T02:56:54.750Z,17.27
2022-12-18T02:59:48.549Z,17.63
2022-12-18T03:02:42.094Z,16.75
2022-12-18T03:05:21.002Z,16.25
2022-12-18T03:08:09.491Z,18.17
2022-12-18T03:10:46.428Z,17.60
2022-12-18T03:13:20.884Z,17.52
2022-12-18T03:15:51.876Z,16.98
2022-12-18T03:18:27.001Z,15.80
2022-12-18T03:20:56.670Z,16.33
2022-12-18T03:23:30.079Z,16.83
2022-12-18T03:26:07.166Z,15.27
2022-12-18T03:28:42.316Z,15.68
2022-12-18T03:31:12.454Z,16.63
2022-12-18T03:33:45.051Z,17.37
2022-12-18T03:36:11.930Z,16.83
2022-12-18T03:38:39.249Z,16.92
2022-12-18T03:41:30.512Z,16.90
2022-12-18T03:44:22.201Z,18.13
2022-12-18T03:47:10.769Z,16.83
2022-12-18T03:49:48.594Z,16.17
2022-12-18T03:52:28.332Z,15.10
2022-12-18T03:54:57.425Z,15.30
2022-12-18T03:57:28.383Z,15.65
2022-12-18T04:00:04.786Z,15.53
2022-12-18T04:02:46.034Z,14.35
2022-12-18T04:05:18.770Z,15.23
2022-12-18T04:07:48.537Z,13.45
2022-12-18T04:10:17.089Z,15.30
2022-12-18T04:12:44.110Z,14.60
2022-12-18T04:15:14.167Z,14.73
2022-12-18T04:17:50.031Z,13.83
2022-12-18T04:20:20.187Z,15.50
2022-12-18T04:22:47.761Z,14.00
2022-12-18T04:25:15.076Z,14.83
2022-12-18T04:27:54.144Z,13.85
2022-12-18T04:30:20.880Z,16.58
2022-12-18T04:32:52.186Z,13.65
2022-12-18T04:35:20.019Z,13.23
2022-12-18T04:37:47.269Z,13.52
2022-12-18T04:40:14.136Z,12.20
2022-12-18T04:42:46.060Z,13.73
2022-12-18T04:45:12.944Z,13.50
2022-12-18T04:47:39.690Z,13.55
2022-12-18T04:50:06.886Z,12.50
2022-12-18T04:52:33.630Z,11.98
2022-12-18T04:55:00.414Z,11.85
2022-12-18T04:57:27.199Z,12.25
2022-12-18T04:59:53.915Z,12.52
2022-12-18T05:02:20.776Z,12.20
2022-12-18T05:04:47.534Z,11.07
2022-12-18T05:07:14.302Z,12.33
2022-12-18T05:09:41.146Z,11.48
2022-12-18T05:12:08.436Z,11.40
2022-12-18T05:14:35.108Z,10.37
2022-12-18T05:17:01.811Z,12.18
2022-12-18T05:19:28.500Z,11.77
2022-12-18T05:21:55.256Z,10.07
2022-12-18T05:24:22.617Z,11.27
2022-12-18T05:26:49.613Z,12.25
2022-12-18T05:29:16.405Z,12.32
2022-12-18T05:31:43.220Z,11.03
2022-12-18T05:34:10.531Z,11.88
2022-12-18T05:36:38.151Z,9.70
2022-12-18T05:39:04.910Z,11.57
2022-12-18T05:41:32.871Z,11.27
2022-12-18T05:44:00.025Z,12.50
2022-12-18T05:46:27.775Z,12.43
2022-12-18T05:48:54.528Z,12.40
2022-12-18T05:51:23.246Z,12.00
2022-12-18T05:53:50.203Z,11.63
2022-12-18T05:56:21.948Z,10.63
2022-12-18T05:58:51.801Z,10.57
2022-12-18T06:01:22.040Z,11.20
2022-12-18T06:03:48.883Z,10.73
2022-12-18T06:06:27.025Z,10.98
2022-12-18T06:08:55.046Z,11.70
2022-12-18T06:11:25.844Z,12.07
2022-12-18T06:13:58.734Z,10.73
2022-12-18T06:16:27.473Z,11.98
2022-12-18T06:18:56.598Z,11.57
2022-12-18T06:21:23.293Z,10.17
2022-12-18T06:23:49.995Z,9.95
2022-12-18T06:26:16.947Z,10.35
2022-12-18T06:28:43.791Z,9.87
2022-12-18T06:31:11.587Z,10.23
2022-12-18T06:33:39.256Z,10.27
2022-12-18T06:36:11.485Z,10.55
2022-12-18T06:38:42.256Z,11.27
2022-12-18T06:41:14.843Z,11.25
2022-12-18T06:43:42.420Z,11.07
2022-12-18T06:46:09.948Z,11.37
2022-12-18T06:48:37.039Z,10.95
2022-12-18T06:51:04.407Z,9.95
2022-12-18T06:53:32.360Z,10.80
2022-12-18T06:56:10.346Z,10.85
2022-12-18T06:58:37.838Z,11.02
2022-12-18T07:01:06.777Z,9.93
2022-12-18T07:03:33.770Z,10.35
2022-12-18T07:06:00.662Z,11.77
2022-12-18T07:08:27.484Z,10.75
2022-12-18T07:10:56.391Z,10.47
2022-12-18T07:13:23.690Z,11.10
2022-12-18T07:15:50.700Z,11.70
2022-12-18T07:18:17.468Z,11.17
2022-12-18T07:20:45.071Z,10.25
2022-12-18T07:23:13.524Z,9.48
2022-12-18T07:25:40.679Z,11.15
2022-12-18T07:28:08.201Z,9.13
2022-12-18T07:30:39.283Z,11.23
2022-12-18T07:33:06.095Z,10.07
2022-12-18T07:35:34.955Z,10.67
2022-12-18T07:38:01.702Z,11.48
2022-12-18T07:40:28.388Z,10.20
2022-12-18T07:42:55.085Z,11.07
2022-12-18T07:45:21.765Z,10.00
2022-12-18T07:47:48.451Z,9.30
2022-12-18T07:50:15.494Z,10.55
2022-12-18T07:52:42.170Z,9.90
2022-12-18T07:55:09.249Z,10.23
2022-12-18T07:57:53.427Z,10.25
2022-12-18T08:00:22.341Z,8.83
2022-12-18T08:02:49.145Z,10.73
2022-12-18T08:05:15.997Z,9.85
2022-12-18T08:07:42.915Z,8.63
2022-12-18T08:10:09.812Z,8.65
2022-12-18T08:12:36.512Z,9.15
2022-12-18T08:15:03.351Z,9.10
2022-12-18T08:17:30.553Z,9.43
2022-12-18T08:19:57.379Z,9.23
2022-12-18T08:22:24.118Z,9.73
2022-12-18T08:24:51.165Z,8.93
2022-12-18T08:27:29.283Z,9.68
2022-12-18T08:29:57.667Z,9.82
2022-12-18T08:32:25.767Z,10.53
2022-12-18T08:34:52.559Z,9.73
2022-12-18T08:37:19.427Z,12.55
2022-12-18T08:39:46.495Z,14.40
2022-12-18T08:42:31.672Z,13.25
2022-12-18T08:44:58.401Z,10.20
2022-12-18T08:47:26.817Z,9.63
2022-12-18T08:49:53.878Z,9.27
2022-12-18T08:52:20.567Z,10.32
2022-12-18T08:54:47.246Z,9.90
2022-12-18T08:57:14.015Z,10.57
2022-12-18T08:59:40.689Z,9.35
2022-12-18T09:02:09.029Z,9.70
2022-12-18T09:04:35.959Z,8.98
2022-12-18T09:07:02.827Z,10.13
2022-12-18T09:09:29.639Z,9.95
2022-12-18T09:11:56.333Z,9.48
2022-12-18T09:14:23.064Z,9.17
2022-12-18T09:16:49.890Z,10.80
2022-12-18T09:19:16.656Z,9.82
2022-12-18T09:21:48.082Z,10.30
2022-12-18T09:24:16.814Z,9.38
2022-12-18T09:26:47.447Z,10.00
2022-12-18T09:29:15.790Z,8.88
2022-12-18T09:31:44.578Z,9.02
2022-12-18T09:34:11.313Z,9.20
2022-12-18T09:36:39.016Z,9.13
2022-12-18T09:39:08.597Z,8.00
2022-12-18T09:41:51.111Z,8.02
2022-12-18T09:44:46.917Z,8.57
2022-12-18T09:47:24.476Z,7.93
2022-12-18T09:49:56.276Z,8.55
2022-12-18T09:52:30.376Z,9.05
2022-12-18T09:55:25.549Z,8.65
2022-12-18T09:58:06.829Z,8.40
2022-12-18T10:00:34.621Z,8.40
2022-12-18T10:03:10.095Z,7.53
2022-12-18T10:05:54.830Z,7.30
2022-12-18T10:08:27.628Z,7.93
2022-12-18T10:11:01.974Z,6.95
2022-12-18T10:13:34.588Z,9.03
2022-12-18T10:16:18.646Z,7.38
2022-12-18T10:18:54.356Z,7.18
2022-12-18T10:21:31.395Z,9.35
2022-12-18T10:24:14.462Z,8.27
2022-12-18T10:26:42.585Z,7.47
2022-12-18T10:29:14.112Z,7.78
2022-12-18T10:31:41.095Z,8.70
2022-12-18T10:34:12.720Z,8.10
2022-12-18T10:36:39.674Z,8.57
2022-12-18T10:39:23.244Z,7.60
2022-12-18T10:41:50.037Z,7.30
2022-12-18T10:44:25.320Z,7.80
2022-12-18T10:46:56.967Z,7.30
2022-12-18T10:49:28.043Z,7.72
2022-12-18T10:52:21.815Z,7.32
2022-12-18T10:54:53.617Z,6.80
2022-12-18T10:57:33.558Z,6.87
2022-12-18T11:00:14.264Z,7.88
2022-12-18T11:02:41.138Z,7.97
2022-12-18T11:05:28.882Z,7.47
2022-12-18T11:07:56.295Z,7.45
2022-12-18T11:10:47.625Z,7.90
2022-12-18T11:13:21.615Z,7.00
2022-12-18T11:15:48.972Z,7.57
2022-12-18T11:18:21.159Z,7.70
2022-12-18T11:21:00.541Z,7.80
2022-12-18T11:23:28.090Z,7.57
2022-12-18T11:25:58.953Z,8.15
2022-12-18T11:28:38.415Z,7.95
2022-12-18T11:31:28.472Z,8.43
2022-12-18T11:36:49.533Z,7.45
2022-12-18T11:39:34.396Z,9.25
2022-12-18T11:42:10.765Z,7.63
2022-12-18T11:44:51.030Z,6.93
2022-12-18T11:47:50.581Z,7.82
2022-12-18T11:50:24.852Z,7.33
2022-12-18T11:52:57.313Z,8.90
2022-12-18T11:55:36.551Z,7.60
2022-12-18T11:58:31.664Z,7.23
2022-12-18T12:01:26.323Z,7.38
2022-12-18T12:04:25.434Z,7.38
2022-12-18T12:07:10.828Z,7.10
2022-12-18T12:10:18.782Z,7.55
2022-12-18T12:12:55.666Z,8.30
2022-12-18T12:15:36.669Z,8.07
2022-12-18T12:18:22.111Z,6.90
2022-12-18T12:21:04.961Z,7.50
2022-12-18T12:23:40.885Z,7.80
2022-12-18T12:26:09.780Z,7.93
2022-12-18T12:29:01.704Z,7.55
2022-12-18T12:31:50.545Z,7.60
2022-12-18T12:34:25.576Z,7.70
2022-12-18T12:37:13.131Z,8.18
2022-12-18T12:39:44.759Z,8.60
2022-12-18T12:42:43.001Z,7.03
2022-12-18T12:45:31.519Z,7.10
2022-12-18T12:47:59.992Z,7.93
2022-12-18T12:50:27.252Z,7.85
2022-12-18T12:52:56.637Z,8.10
2022-12-18T12:55:25.977Z,8.35
2022-12-18T12:58:07.445Z,7.88
2022-12-18T13:00:57.932Z,7.78
2022-12-18T13:03:49.599Z,7.80
2022-12-18T13:06:26.189Z,7.95
2022-12-18T13:09:04.239Z,8.15
2022-12-18T13:14:45.833Z,7.53
2022-12-18T13:17:22.552Z,7.00
2022-12-18T13:19:51.400Z,8.27
2022-12-18T13:22:43.468Z,7.72
2022-12-18T13:25:30.236Z,7.47
2022-12-18T13:28:15.363Z,8.50
2022-12-18T13:30:44.703Z,8.85
2022-12-18T13:33:23.271Z,9.05
2022-12-18T13:35:54.614Z,8.50
2022-12-18T13:38:33.440Z,7.17
2022-12-18T13:41:16.050Z,7.60
2022-12-18T13:43:48.140Z,8.02
2022-12-18T13:46:22.168Z,8.57
2022-12-18T13:48:56.915Z,7.32
2022-12-18T13:51:25.068Z,8.18
2022-12-18T13:54:13.416Z,8.30
2022-12-18T13:56:46.154Z,9.13
2022-12-18T13:59:13.762Z,9.40
2022-12-18T14:01:46.225Z,8.40
2022-12-18T14:04:20.812Z,8.97
2022-12-18T14:06:50.079Z,8.65
2022-12-18T14:09:29.539Z,9.07
2022-12-18T14:12:18.479Z,8.37
2022-12-18T14:14:48.771Z,8.43
2022-12-18T14:17:17.148Z,8.77
2022-12-18T14:19:51.253Z,8.65
2022-12-18T14:22:30.414Z,9.05
2022-12-18T14:25:20.925Z,9.73
2022-12-18T14:27:51.259Z,9.40
2022-12-18T14:30:25.525Z,8.80
2022-12-18T14:33:27.880Z,8.40
2022-12-18T14:36:01.398Z,7.82
2022-12-18T14:38:38.141Z,9.07
2022-12-18T14:41:12.736Z,9.23
2022-12-18T14:43:41.946Z,9.27
2022-12-18T14:46:43.505Z,8.27
2022-12-18T14:49:32.388Z,9.10
2022-12-18T14:52:07.876Z,8.57
2022-12-18T14:54:38.132Z,8.88
2022-12-18T14:57:21.983Z,9.30
2022-12-18T14:59:48.892Z,8.45
2022-12-18T15:02:15.833Z,9.35
2022-12-18T15:04:44.661Z,9.23
2022-12-18T15:07:22.643Z,9.25
2022-12-18T15:10:31.919Z,8.90
2022-12-18T15:13:03.361Z,9.18
2022-12-18T15:15:36.949Z,8.95
2022-12-18T15:18:09.722Z,8.45
2022-12-18T15:20:55.796Z,9.60
2022-12-18T15:23:24.231Z,8.60
2022-12-18T15:26:05.109Z,8.65
2022-12-18T15:28:37.778Z,8.68
2022-12-18T15:31:14.708Z,9.20
2022-12-18T15:33:47.033Z,9.13
2022-12-18T15:36:18.047Z,10.05
2022-12-18T15:38:53.411Z,9.75
2022-12-18T15:41:24.757Z,8.80
2022-12-18T15:43:53.601Z,10.18
2022-12-18T15:46:26.033Z,10.68
2022-12-18T15:48:59.762Z,9.37
2022-12-18T15:51:35.431Z,9.55
2022-12-18T15:54:06.946Z,9.73
2022-12-18T15:56:52.547Z,10.13
2022-12-18T15:59:20.844Z,9.80
2022-12-18T16:01:50.089Z,10.75
2022-12-18T16:04:22.836Z,9.77
2022-12-18T16:09:37.980Z,10.18
2022-12-18T16:12:06.079Z,9.85
2022-12-18T16:14:32.960Z,9.90
2022-12-18T16:17:02.142Z,10.15
2022-12-18T16:19:29.331Z,8.88
2022-12-18T16:21:58.024Z,9.67
2022-12-18T16:24:30.190Z,11.38
2022-12-18T16:27:00.159Z,10.35
2022-12-18T16:29:29.077Z,9.70
2022-12-18T16:32:00.446Z,11.20
2022-12-18T16:34:36.098Z,10.10
2022-12-18T16:37:06.707Z,11.07
2022-12-18T16:39:37.995Z,10.43
2022-12-18T16:42:15.366Z,10.32
2022-12-18T16:44:42.816Z,11.20
2022-12-18T16:47:10.321Z,11.10
2022-12-18T16:49:40.018Z,9.85
2022-12-18T16:52:08.050Z,10.07
2022-12-18T16:54:36.490Z,11.43
2022-12-18T16:57:05.232Z,10.68
2022-12-18T16:59:32.468Z,11.20
2022-12-18T17:01:59.252Z,9.57
2022-12-18T17:04:26.153Z,11.43
2022-12-18T17:06:53.885Z,11.10
2022-12-18T17:09:25.417Z,11.05
2022-12-18T17:11:53.435Z,10.80
2022-12-18T17:14:22.332Z,11.25
2022-12-18T17:17:07.367Z,11.20
2022-12-18T17:19:36.136Z,11.75
2022-12-18T17:22:04.328Z,11.82
2022-12-18T17:24:34.752Z,11.13
2022-12-18T17:27:02.888Z,12.48
2022-12-18T17:29:29.667Z,12.03
2022-12-18T17:31:57.227Z,10.73
2022-12-18T17:34:25.378Z,11.90
2022-12-18T17:36:52.115Z,11.93
2022-12-18T17:39:20.745Z,11.32
2022-12-18T17:41:48.721Z,12.00
2022-12-18T17:44:16.765Z,12.27
2022-12-18T17:46:46.027Z,12.40
2022-12-18T17:49:13.271Z,12.75
2022-12-18T17:51:42.157Z,11.95
2022-12-18T17:54:09.283Z,12.20
2022-12-18T17:56:36.154Z,11.18
2022-12-18T17:59:02.983Z,12.43
2022-12-18T18:01:29.916Z,12.43
2022-12-18T18:03:56.843Z,11.82
2022-12-18T18:06:24.117Z,11.85
2022-12-18T18:08:50.996Z,12.85
2022-12-18T18:11:38.971Z,11.63
2022-12-18T18:14:11.740Z,12.65
2022-12-18T18:16:42.586Z,13.13
2022-12-18T18:19:12.487Z,11.73
2022-12-18T18:21:41.898Z,11.80
2022-12-18T18:24:10.752Z,13.50
2022-12-18T18:26:38.023Z,11.80
2022-12-18T18:29:06.539Z,12.15
2022-12-18T18:31:41.193Z,13.63
2022-12-18T18:34:13.669Z,11.93
2022-12-18T18:36:40.381Z,12.23
2022-12-18T18:39:07.616Z,13.07
2022-12-18T18:41:36.251Z,12.77
2022-12-18T18:44:03.095Z,10.53
2022-12-18T18:46:29.973Z,12.35
2022-12-18T18:48:56.799Z,12.65
2022-12-18T18:51:23.907Z,12.00
2022-12-18T18:53:52.382Z,9.52
2022-12-18T18:59:08.501Z,11.98
2022-12-18T19:01:35.436Z,11.45
2022-12-18T19:04:02.378Z,12.70
2022-12-18T19:06:29.410Z,12.07
2022-12-18T19:08:57.668Z,11.90
2022-12-18T19:11:44.089Z,11.90
2022-12-18T19:14:13.868Z,12.80
2022-12-18T19:16:41.451Z,10.27
2022-12-18T19:19:08.463Z,11.30
2022-12-18T19:21:37.314Z,11.73
2022-12-18T19:24:04.471Z,12.10
2022-12-18T19:26:31.204Z,11.68
2022-12-18T19:29:03.203Z,11.20
2022-12-18T19:31:35.173Z,11.68
2022-12-18T19:34:07.205Z,11.67
2022-12-18T19:36:36.040Z,11.55
2022-12-18T19:39:09.936Z,11.50
2022-12-18T19:41:36.826Z,12.50
2022-12-18T19:44:07.945Z,11.57
2022-12-18T19:46:36.089Z,11.52
2022-12-18T19:49:06.320Z,12.10
2022-12-18T19:51:33.021Z,12.63
2022-12-18T19:54:01.883Z,11.68
2022-12-18T19:56:33.815Z,12.55
2022-12-18T19:59:01.480Z,12.02
2022-12-18T20:01:29.547Z,12.40
2022-12-18T20:03:58.258Z,12.43
2022-12-18T20:06:33.158Z,12.10
2022-12-18T20:09:03.223Z,12.13
2022-12-18T20:11:31.239Z,12.13
2022-12-18T20:14:02.618Z,13.30
2022-12-18T20:16:29.722Z,12.05
2022-12-18T20:18:57.627Z,12.40
2022-12-18T20:21:25.741Z,12.13
2022-12-18T20:23:53.027Z,11.02
2022-12-18T20:26:19.764Z,11.40
2022-12-18T20:28:46.607Z,13.73
2022-12-18T20:31:14.197Z,14.27
2022-12-18T20:33:42.414Z,12.48
2022-12-18T20:36:14.318Z,13.65
2022-12-18T20:38:42.397Z,13.23
2022-12-18T20:41:16.698Z,12.52
2022-12-18T20:43:44.105Z,13.23
2022-12-18T20:46:13.463Z,12.50
2022-12-18T20:48:40.447Z,11.50
2022-12-18T20:51:10.485Z,14.40
2022-12-18T20:53:38.843Z,12.07
2022-12-18T20:56:14.708Z,12.77
2022-12-18T20:58:44.886Z,12.75
2022-12-18T21:01:15.079Z,12.63
2022-12-18T21:03:43.353Z,12.43
2022-12-18T21:06:10.749Z,12.53
2022-12-18T21:08:38.329Z,12.95
2022-12-18T21:11:39.034Z,12.65
2022-12-18T21:14:11.941Z,13.80
2022-12-18T21:16:40.006Z,11.75
2022-12-18T21:19:06.888Z,13.65
2022-12-18T21:21:35.654Z,13.75
2022-12-18T21:24:06.407Z,13.10
2022-12-18T21:26:33.444Z,12.95
2022-12-18T21:29:03.076Z,12.77
2022-12-18T21:31:32.232Z,14.35
2022-12-18T21:34:02.387Z,13.68
2022-12-18T21:36:30.765Z,14.40
2022-12-18T21:38:58.409Z,12.35
2022-12-18T21:41:44.629Z,13.73
2022-12-18T21:44:14.697Z,12.57
2022-12-18T21:46:44.407Z,13.98
2022-12-18T21:49:14.504Z,12.80
2022-12-18T21:51:41.603Z,12.93
2022-12-18T21:54:08.369Z,13.60
2022-12-18T21:56:47.045Z,13.77
2022-12-18T21:59:25.121Z,12.57
2022-12-18T22:01:54.256Z,13.95
2022-12-18T22:04:22.127Z,14.88
2022-12-18T22:06:49.420Z,13.68
2022-12-18T22:09:19.467Z,13.20
2022-12-18T22:11:46.876Z,13.48
2022-12-18T22:14:14.745Z,13.75
2022-12-18T22:16:42.634Z,13.83
2022-12-18T22:19:11.374Z,13.15
2022-12-18T22:21:40.644Z,13.63
2022-12-18T22:24:22.017Z,13.07
2022-12-18T22:26:50.238Z,13.27
2022-12-18T22:29:42.724Z,14.27
2022-12-18T22:32:15.702Z,14.75
2022-12-18T22:34:43.267Z,11.33
2022-12-18T22:37:12.276Z,11.15
2022-12-18T22:39:39.948Z,13.35
2022-12-18T22:42:08.794Z,14.20
2022-12-18T22:44:35.819Z,13.50
2022-12-18T22:47:06.511Z,14.82
2022-12-18T22:49:35.364Z,12.88
2022-12-18T22:52:03.932Z,13.10
2022-12-18T22:54:30.678Z,13.57
2022-12-18T22:56:57.443Z,12.02
2022-12-18T22:59:24.629Z,13.80
2022-12-18T23:01:52.971Z,13.60
2022-12-18T23:04:32.178Z,13.60
2022-12-18T23:07:04.573Z,13.05
2022-12-18T23:09:31.693Z,13.23
2022-12-18T23:11:58.423Z,13.40
2022-12-18T23:14:25.144Z,14.32
2022-12-18T23:16:52.273Z,13.68
2022-12-18T23:19:20.460Z,14.27
2022-12-18T23:21:47.301Z,12.65
2022-12-18T23:24:14.980Z,14.23
2022-12-18T23:26:43.041Z,14.32
2022-12-18T23:29:10.027Z,14.73
2022-12-18T23:31:39.060Z,14.48
2022-12-18T23:34:07.121Z,14.57
2022-12-18T23:36:45.715Z,14.23
2022-12-18T23:39:25.401Z,13.45
2022-12-18T23:42:00.081Z,14.02
2022-12-18T23:44:27.186Z,15.27
2022-12-18T23:46:54.090Z,15.27
2022-12-18T23:49:20.972Z,14.93
2022-12-18T23:51:48.131Z,14.55
2022-12-18T23:54:15.167Z,13.67
2022-12-18T23:56:42.193Z,14.05
2022-12-18T23:59:09.168Z,14.82
